createdAt,value
2023-02-16T00:00:08.121Z,101200.19
2023-02-16T00:02:11.668Z,101207.41
2023-02-16T00:04:19.228Z,101210.00
2023-02-16T00:06:22.134Z,101209.09
2023-02-16T00:08:25.229Z,101205.63
2023-02-16T00:10:36.857Z,101204.56
2023-02-16T00:12:58.622Z,101207.31
2023-02-16T00:15:01.431Z,101205.59
2023-02-16T00:17:04.772Z,101214.34
2023-02-16T00:19:17.730Z,101203.97
2023-02-16T00:21:21.025Z,101208.75
2023-02-16T00:23:23.826Z,101210.31
2023-02-16T00:25:26.701Z,101211.31
2023-02-16T00:27:29.617Z,101200.94
2023-02-16T00:29:35.661Z,101201.75
2023-02-16T00:31:38.529Z,101201.81
2023-02-16T00:33:41.367Z,101197.53
2023-02-16T00:35:44.661Z,101186.13
2023-02-16T00:37:48.199Z,101193.53
2023-02-16T00:39:51.037Z,101191.47
2023-02-16T00:41:54.701Z,101189.88
2023-02-16T00:43:59.030Z,101180.19
2023-02-16T00:46:03.337Z,101185.31
2023-02-16T00:48:06.872Z,101188.91
2023-02-16T00:50:16.660Z,101185.19
2023-02-16T00:52:36.182Z,101188.75
2023-02-16T00:54:40.858Z,101170.44
2023-02-16T00:56:45.199Z,101177.56
2023-02-16T00:58:50.147Z,101181.84
2023-02-16T01:00:54.873Z,101185.06
2023-02-16T01:03:04.829Z,101176.50
2023-02-16T01:05:08.162Z,101180.81
2023-02-16T01:07:30.335Z,101173.84
2023-02-16T01:09:50.622Z,101176.53
2023-02-16T01:11:53.474Z,101174.72
2023-02-16T01:13:57.426Z,101177.41
2023-02-16T01:16:00.437Z,101175.59
2023-02-16T01:18:07.199Z,101178.41
2023-02-16T01:20:15.510Z,101177.56
2023-02-16T01:22:18.364Z,101186.38
2023-02-16T01:24:21.248Z,101184.84
2023-02-16T01:26:24.289Z,101191.78
2023-02-16T01:28:27.766Z,101185.66
2023-02-16T01:30:30.769Z,101185.94
2023-02-16T01:32:33.678Z,101184.91
2023-02-16T01:34:38.625Z,101182.28
2023-02-16T01:36:43.332Z,101166.88
2023-02-16T01:38:46.249Z,101172.88
2023-02-16T01:40:58.492Z,101171.13
2023-02-16T01:43:05.338Z,101173.72
2023-02-16T01:45:12.961Z,101176.44
2023-02-16T01:47:25.645Z,101173.88
2023-02-16T01:49:29.007Z,101169.38
2023-02-16T01:51:37.249Z,101172.06
2023-02-16T01:53:44.280Z,101174.75
2023-02-16T01:55:49.454Z,101168.47
2023-02-16T01:57:56.227Z,101171.91
2023-02-16T02:00:12.393Z,101167.09
2023-02-16T02:02:19.364Z,101163.34
2023-02-16T02:04:44.023Z,101174.16
2023-02-16T02:06:48.350Z,101175.91
2023-02-16T02:08:57.795Z,101168.06
2023-02-16T02:11:08.387Z,101164.53
2023-02-16T02:13:16.997Z,101167.97
2023-02-16T02:15:26.523Z,101160.06
2023-02-16T02:17:30.528Z,101160.19
2023-02-16T02:19:42.698Z,101165.38
2023-02-16T02:22:17.786Z,101162.03
2023-02-16T02:24:38.745Z,101153.97
2023-02-16T02:27:03.778Z,101155.84
2023-02-16T02:29:35.905Z,101156.69
2023-02-16T02:31:49.764Z,101152.28
2023-02-16T02:34:00.325Z,101147.06
2023-02-16T02:36:13.775Z,101146.16
2023-02-16T02:38:19.953Z,101148.88
2023-02-16T02:40:31.946Z,101151.38
2023-02-16T02:42:41.700Z,101149.56
2023-02-16T02:44:48.543Z,101158.31
2023-02-16T02:46:52.130Z,101155.69
2023-02-16T02:48:56.257Z,101158.25
2023-02-16T02:51:17.529Z,101152.16
2023-02-16T02:53:20.564Z,101148.63
2023-02-16T02:55:41.406Z,101154.88
2023-02-16T02:58:06.259Z,101147.00
2023-02-16T03:00:29.240Z,101144.38
2023-02-16T03:02:35.192Z,101143.50
2023-02-16T03:04:38.452Z,101133.94
2023-02-16T03:06:43.808Z,101135.78
2023-02-16T03:08:49.793Z,101142.75
2023-02-16T03:11:12.544Z,101141.09
2023-02-16T03:13:20.313Z,101135.94
2023-02-16T03:15:25.499Z,101132.47
2023-02-16T03:17:50.286Z,101142.09
2023-02-16T03:20:11.207Z,101121.94
2023-02-16T03:22:31.559Z,101129.78
2023-02-16T03:24:52.241Z,101131.50
2023-02-16T03:27:12.691Z,101125.59
2023-02-16T03:29:18.216Z,101125.44
2023-02-16T03:31:23.654Z,101125.56
2023-02-16T03:33:27.533Z,101126.50
2023-02-16T03:35:30.904Z,101127.31
2023-02-16T03:37:33.988Z,101125.56
2023-02-16T03:39:57.727Z,101117.75
2023-02-16T03:42:00.786Z,101121.28
2023-02-16T03:44:03.811Z,101108.28
2023-02-16T03:46:08.149Z,101106.44
2023-02-16T03:48:11.541Z,101104.72
2023-02-16T03:50:14.752Z,101100.28
2023-02-16T03:52:17.744Z,101102.91
2023-02-16T03:54:20.637Z,101101.34
2023-02-16T03:56:23.523Z,101108.97
2023-02-16T03:58:26.506Z,101104.81
2023-02-16T04:00:29.645Z,101105.50
2023-02-16T04:02:34.025Z,101112.59
2023-02-16T04:04:38.324Z,101101.97
2023-02-16T04:06:41.585Z,101108.97
2023-02-16T04:08:44.664Z,101105.47
2023-02-16T04:10:47.725Z,101109.00
2023-02-16T04:12:49.667Z,101106.50
2023-02-16T04:14:52.553Z,101103.91
2023-02-16T04:16:56.028Z,101100.31
2023-02-16T04:19:00.284Z,101106.41
2023-02-16T04:21:03.364Z,101113.53
2023-02-16T04:23:06.888Z,101111.78
2023-02-16T04:25:09.894Z,101114.44
2023-02-16T04:27:12.823Z,101118.72
2023-02-16T04:29:15.726Z,101112.00
2023-02-16T04:31:18.842Z,101118.81
2023-02-16T04:33:21.891Z,101118.72
2023-02-16T04:35:26.368Z,101119.69
2023-02-16T04:37:29.632Z,101116.41
2023-02-16T04:39:32.964Z,101112.75
2023-02-16T04:41:35.849Z,101107.56
2023-02-16T04:43:39.121Z,101114.63
2023-02-16T04:45:42.110Z,101108.44
2023-02-16T04:47:45.448Z,101098.78
2023-02-16T04:49:50.325Z,101097.00
2023-02-16T04:51:54.879Z,101093.44
2023-02-16T04:53:58.802Z,101092.53
2023-02-16T04:56:02.058Z,101089.94
2023-02-16T04:58:06.174Z,101085.50
2023-02-16T05:00:13.546Z,101091.59
2023-02-16T05:02:17.087Z,101082.84
2023-02-16T05:04:22.983Z,101091.59
2023-02-16T05:06:26.145Z,101089.09
2023-02-16T05:08:30.996Z,101094.38
2023-02-16T05:10:36.029Z,101093.44
2023-02-16T05:12:57.061Z,101090.78
2023-02-16T05:15:03.604Z,101090.75
2023-02-16T05:17:06.878Z,101089.88
2023-02-16T05:19:12.332Z,101087.22
2023-02-16T05:21:35.292Z,101086.50
2023-02-16T05:23:40.848Z,101088.19
2023-02-16T05:25:44.792Z,101099.47
2023-02-16T05:27:50.297Z,101099.47
2023-02-16T05:29:53.841Z,101103.06
2023-02-16T05:31:58.842Z,101095.19
2023-02-16T05:34:05.499Z,101103.97
2023-02-16T05:36:10.308Z,101104.94
2023-02-16T05:38:14.954Z,101091.03
2023-02-16T05:40:22.163Z,101107.63
2023-02-16T05:42:26.034Z,101106.88
2023-02-16T05:44:31.335Z,101108.53
2023-02-16T05:46:36.794Z,101106.00
2023-02-16T05:48:44.095Z,101108.59
2023-02-16T05:50:49.490Z,101107.72
2023-02-16T05:52:56.582Z,101106.88
2023-02-16T05:55:05.084Z,101105.91
2023-02-16T05:57:12.302Z,101110.22
2023-02-16T05:59:16.103Z,101103.25
2023-02-16T06:01:19.747Z,101110.25
2023-02-16T06:03:23.085Z,101104.94
2023-02-16T06:05:30.201Z,101099.72
2023-02-16T06:07:37.019Z,101097.25
2023-02-16T06:09:42.607Z,101095.34
2023-02-16T06:11:47.135Z,101099.75
2023-02-16T06:13:51.790Z,101105.03
2023-02-16T06:15:57.013Z,101114.56
2023-02-16T06:18:05.276Z,101113.69
2023-02-16T06:20:11.799Z,101113.75
2023-02-16T06:22:16.397Z,101117.25
2023-02-16T06:24:23.814Z,101107.69
2023-02-16T06:26:31.543Z,101113.81
2023-02-16T06:28:34.596Z,101108.53
2023-02-16T06:30:39.167Z,101113.75
2023-02-16T06:32:46.948Z,101111.03
2023-02-16T06:34:50.033Z,101115.34
2023-02-16T06:36:53.613Z,101107.50
2023-02-16T06:39:06.041Z,101117.97
2023-02-16T06:41:09.372Z,101111.81
2023-02-16T06:43:14.510Z,101110.94
2023-02-16T06:45:19.452Z,101116.31
2023-02-16T06:47:27.119Z,101109.41
2023-02-16T06:49:33.033Z,101113.66
2023-02-16T06:51:39.922Z,101113.69
2023-02-16T06:53:47.624Z,101113.53
2023-02-16T06:55:51.780Z,101111.78
2023-02-16T06:57:58.373Z,101104.81
2023-02-16T07:00:05.052Z,101102.97
2023-02-16T07:02:08.439Z,101114.25
2023-02-16T07:04:15.559Z,101101.91
2023-02-16T07:06:18.930Z,101107.09
2023-02-16T07:08:25.026Z,101106.13
2023-02-16T07:10:43.658Z,101099.88
2023-02-16T07:12:52.501Z,101108.47
2023-02-16T07:14:57.329Z,101111.84
2023-02-16T07:17:04.216Z,101110.91
2023-02-16T07:19:07.621Z,101119.56
2023-02-16T07:21:11.917Z,101114.81
2023-02-16T07:23:15.596Z,101109.50
2023-02-16T07:25:20.855Z,101114.66
2023-02-16T07:27:27.498Z,101097.13
2023-02-16T07:29:40.363Z,101103.19
2023-02-16T07:31:46.649Z,101094.38
2023-02-16T07:33:50.841Z,101094.34
2023-02-16T07:35:54.981Z,101091.72
2023-02-16T07:37:59.362Z,101103.22
2023-02-16T07:40:03.464Z,101097.69
2023-02-16T07:42:08.890Z,101102.13
2023-02-16T07:44:12.480Z,101100.28
2023-02-16T07:46:20.037Z,101105.63
2023-02-16T07:52:00.266Z,101102.16
2023-02-16T07:54:04.904Z,101108.22
2023-02-16T07:56:08.260Z,101111.09
2023-02-16T07:58:12.165Z,101112.66
2023-02-16T08:00:16.691Z,101110.09
2023-02-16T08:02:22.744Z,101097.91
2023-02-16T08:04:26.618Z,101104.78
2023-02-16T08:06:29.995Z,101094.34
2023-02-16T08:08:34.774Z,101101.09
2023-02-16T08:10:42.971Z,101101.84
2023-02-16T08:12:48.543Z,101093.94
2023-02-16T08:14:52.016Z,101094.63
2023-02-16T08:16:56.701Z,101090.31
2023-02-16T08:19:11.690Z,101078.94
2023-02-16T08:21:16.976Z,101078.31
2023-02-16T08:23:24.381Z,101082.38
2023-02-16T08:25:30.846Z,101076.91
2023-02-16T08:27:36.050Z,101078.56
2023-02-16T08:29:41.998Z,101070.66
2023-02-16T08:31:48.241Z,101077.84
2023-02-16T08:33:52.888Z,101082.88
2023-02-16T08:35:59.776Z,101081.69
2023-02-16T08:38:06.494Z,101080.53
2023-02-16T08:40:14.805Z,101083.91
2023-02-16T08:42:17.825Z,101089.13
2023-02-16T08:44:24.063Z,101087.38
2023-02-16T08:46:30.416Z,101084.75
2023-02-16T08:48:37.421Z,101086.34
2023-02-16T08:50:47.244Z,101084.47
2023-02-16T08:52:50.677Z,101088.00
2023-02-16T08:54:54.689Z,101088.53
2023-02-16T08:56:59.047Z,101089.50
2023-02-16T08:59:06.150Z,101090.25
2023-02-16T09:01:17.430Z,101100.03
2023-02-16T09:03:25.665Z,101097.84
2023-02-16T09:05:31.915Z,101097.03
2023-02-16T09:07:35.252Z,101098.75
2023-02-16T09:09:44.087Z,101098.47
2023-02-16T09:11:52.952Z,101099.47
2023-02-16T09:13:56.241Z,101102.09
2023-02-16T09:16:04.990Z,101097.31
2023-02-16T09:18:16.705Z,101094.09
2023-02-16T09:20:21.524Z,101099.91
2023-02-16T09:22:24.920Z,101110.53
2023-02-16T09:24:28.926Z,101109.38
2023-02-16T09:26:47.959Z,101107.78
2023-02-16T09:28:55.639Z,101110.72
2023-02-16T09:31:00.295Z,101100.28
2023-02-16T09:33:05.151Z,101112.72
2023-02-16T09:35:16.502Z,101101.53
2023-02-16T09:37:20.286Z,101107.19
2023-02-16T09:39:24.548Z,101102.09
2023-02-16T09:41:34.405Z,101111.00
2023-02-16T09:43:51.161Z,101113.28
2023-02-16T09:45:59.206Z,101108.44
2023-02-16T09:48:08.030Z,101104.56
2023-02-16T09:50:27.634Z,101099.25
2023-02-16T09:52:47.464Z,101096.16
2023-02-16T09:54:58.296Z,101097.72
2023-02-16T09:57:04.963Z,101090.53
2023-02-16T09:59:17.807Z,101087.00
2023-02-16T10:01:40.438Z,101096.38
2023-02-16T10:03:57.688Z,101089.88
2023-02-16T10:06:29.850Z,101093.28
2023-02-16T10:08:45.614Z,101097.25
2023-02-16T10:11:08.723Z,101095.25
2023-02-16T10:13:19.949Z,101093.41
2023-02-16T10:15:37.998Z,101087.38
2023-02-16T10:17:46.480Z,101098.66
2023-02-16T10:19:54.946Z,101099.75
2023-02-16T10:22:07.134Z,101098.41
2023-02-16T10:24:17.008Z,101106.34
2023-02-16T10:26:24.576Z,101099.53
2023-02-16T10:28:33.988Z,101105.94
2023-02-16T10:30:37.299Z,101103.16
2023-02-16T10:32:49.592Z,101110.53
2023-02-16T10:34:59.298Z,101109.53
2023-02-16T10:37:13.482Z,101111.16
2023-02-16T10:39:20.937Z,101115.44
2023-02-16T10:41:31.775Z,101116.34
2023-02-16T10:43:43.317Z,101117.41
2023-02-16T10:45:52.468Z,101116.84
2023-02-16T10:47:57.190Z,101122.31
2023-02-16T10:50:05.216Z,101116.91
2023-02-16T10:52:10.575Z,101110.50
2023-02-16T10:54:19.107Z,101110.81
2023-02-16T10:56:40.450Z,101128.88
2023-02-16T10:58:44.521Z,101113.91
2023-02-16T11:00:53.956Z,101122.25
2023-02-16T11:02:57.749Z,101128.75
2023-02-16T11:05:04.068Z,101119.09
2023-02-16T11:07:10.997Z,101136.06
2023-02-16T11:09:16.825Z,101130.69
2023-02-16T11:11:22.773Z,101126.53
2023-02-16T11:13:29.828Z,101129.22
2023-02-16T11:15:33.034Z,101127.94
2023-02-16T11:17:49.722Z,101121.72
2023-02-16T11:19:56.337Z,101122.56
2023-02-16T11:21:59.955Z,101113.78
2023-02-16T11:24:04.404Z,101121.63
2023-02-16T11:26:13.916Z,101118.31
2023-02-16T11:28:27.254Z,101111.69
2023-02-16T11:30:34.007Z,101106.34
2023-02-16T11:32:38.634Z,101094.84
2023-02-16T11:34:43.681Z,101112.25
2023-02-16T11:36:47.904Z,101102.88
2023-02-16T11:38:59.427Z,101103.44
2023-02-16T11:41:07.482Z,101102.97
2023-02-16T11:43:18.573Z,101106.69
2023-02-16T11:45:30.309Z,101099.13
2023-02-16T11:47:36.308Z,101099.97
2023-02-16T11:49:41.866Z,101096.81
2023-02-16T11:51:44.731Z,101091.34
2023-02-16T11:54:01.220Z,101086.50
2023-02-16T11:56:15.408Z,101091.94
2023-02-16T11:58:20.270Z,101081.16
2023-02-16T12:00:24.490Z,101073.41
2023-02-16T12:03:00.681Z,101065.34
2023-02-16T12:05:14.675Z,101076.81
2023-02-16T12:07:27.232Z,101066.88
2023-02-16T12:09:33.802Z,101058.16
2023-02-16T12:11:47.274Z,101053.81
2023-02-16T12:13:55.736Z,101051.97
2023-02-16T12:16:03.902Z,101060.91
2023-02-16T12:18:18.614Z,101061.38
2023-02-16T12:20:44.716Z,101063.31
2023-02-16T12:22:49.919Z,101054.88
2023-02-16T12:25:02.979Z,101059.72
2023-02-16T12:27:11.512Z,101064.50
2023-02-16T12:29:25.796Z,101068.97
2023-02-16T12:31:37.000Z,101056.81
2023-02-16T12:33:48.752Z,101052.47
2023-02-16T12:36:11.377Z,101056.28
2023-02-16T12:38:22.189Z,101056.34
2023-02-16T12:40:30.854Z,101051.97
2023-02-16T12:42:45.390Z,101052.16
2023-02-16T12:44:50.962Z,101053.91
2023-02-16T12:46:59.502Z,101045.78
2023-02-16T12:49:06.787Z,101049.81
2023-02-16T12:51:11.902Z,101040.81
2023-02-16T12:53:22.373Z,101042.78
2023-02-16T12:55:28.803Z,101027.91
2023-02-16T12:57:33.031Z,101021.09
2023-02-16T12:59:40.877Z,101006.13
2023-02-16T13:01:44.932Z,100999.75
2023-02-16T13:03:54.181Z,101010.44
2023-02-16T13:06:06.645Z,101021.00
2023-02-16T13:08:17.030Z,101020.13
2023-02-16T13:10:24.247Z,101023.31
2023-02-16T13:12:32.915Z,101030.31
2023-02-16T13:14:42.298Z,101021.69
2023-02-16T13:16:48.628Z,101024.28
2023-02-16T13:18:53.069Z,101020.28
2023-02-16T13:21:03.302Z,101027.34
2023-02-16T13:23:25.617Z,101023.47
2023-02-16T13:25:51.150Z,101021.31
2023-02-16T13:28:03.069Z,101015.56
2023-02-16T13:30:47.598Z,101016.38
2023-02-16T13:33:14.338Z,101007.63
2023-02-16T13:35:42.804Z,101016.84
2023-02-16T13:38:02.235Z,101004.81
2023-02-16T13:40:17.481Z,101003.94
2023-02-16T13:42:35.088Z,101010.09
2023-02-16T13:44:41.931Z,100999.53
2023-02-16T13:46:50.294Z,101001.47
2023-02-16T13:48:54.988Z,100997.88
2023-02-16T13:50:59.878Z,100994.84
2023-02-16T13:53:16.059Z,100983.31
2023-02-16T13:55:24.342Z,100975.25
2023-02-16T13:58:04.608Z,100966.81
2023-02-16T14:00:28.787Z,100963.34
2023-02-16T14:02:58.774Z,100959.00
2023-02-16T14:05:05.257Z,100958.63
2023-02-16T14:07:23.767Z,100947.09
2023-02-16T14:09:48.930Z,100945.22
2023-02-16T14:12:05.685Z,100956.22
2023-02-16T14:14:29.558Z,100951.13
2023-02-16T14:16:34.916Z,100949.19
2023-02-16T14:18:44.092Z,100947.81
2023-02-16T14:21:01.378Z,100949.53
2023-02-16T14:23:05.096Z,100938.84
2023-02-16T14:25:48.857Z,100944.25
2023-02-16T14:27:54.439Z,100928.41
2023-02-16T14:30:00.159Z,100941.25
2023-02-16T14:32:07.717Z,100934.63
2023-02-16T14:34:18.216Z,100936.59
2023-02-16T14:36:26.648Z,100937.34
2023-02-16T14:38:30.611Z,100940.69
2023-02-16T14:40:50.093Z,100929.78
2023-02-16T14:42:57.820Z,100929.09
2023-02-16T14:45:22.631Z,100926.94
2023-02-16T14:47:33.838Z,100930.41
2023-02-16T14:50:03.782Z,100937.59
2023-02-16T14:52:47.096Z,100926.31
2023-02-16T14:55:10.688Z,100935.38
2023-02-16T14:57:15.059Z,100927.63
2023-02-16T14:59:31.838Z,100922.34
2023-02-16T15:01:41.729Z,100921.72
2023-02-16T15:03:48.064Z,100921.34
2023-02-16T15:05:53.498Z,100925.28
2023-02-16T15:08:04.344Z,100932.94
2023-02-16T15:10:10.428Z,100921.41
2023-02-16T15:12:24.220Z,100922.41
2023-02-16T15:14:29.421Z,100926.66
2023-02-16T15:16:33.605Z,100924.88
2023-02-16T15:18:40.202Z,100920.97
2023-02-16T15:20:46.856Z,100916.81
2023-02-16T15:22:51.174Z,100914.28
2023-02-16T15:25:02.005Z,100908.63
2023-02-16T15:27:05.202Z,100903.88
2023-02-16T15:29:28.726Z,100901.81
2023-02-16T15:31:35.841Z,100890.19
2023-02-16T15:33:40.192Z,100889.19
2023-02-16T15:35:44.219Z,100890.59
2023-02-16T15:37:47.161Z,100891.63
2023-02-16T15:40:08.598Z,100889.03
2023-02-16T15:42:22.758Z,100880.72
2023-02-16T15:44:31.689Z,100882.81
2023-02-16T15:46:37.410Z,100884.56
2023-02-16T15:48:41.122Z,100882.59
2023-02-16T15:50:45.246Z,100887.16
2023-02-16T15:52:48.924Z,100894.13
2023-02-16T15:54:52.300Z,100896.38
2023-02-16T15:56:56.226Z,100890.41
2023-02-16T15:59:03.022Z,100897.44
2023-02-16T16:01:06.236Z,100898.94
2023-02-16T16:03:10.945Z,100900.28
2023-02-16T16:05:23.132Z,100902.75
2023-02-16T16:07:28.536Z,100901.44
2023-02-16T16:09:33.719Z,100899.53
2023-02-16T16:11:38.323Z,100897.09
2023-02-16T16:13:42.447Z,100890.50
2023-02-16T16:15:50.459Z,100888.53
2023-02-16T16:17:55.041Z,100894.03
2023-02-16T16:19:58.405Z,100899.38
2023-02-16T16:22:01.640Z,100891.44
2023-02-16T16:24:06.438Z,100881.94
2023-02-16T16:26:18.570Z,100881.13
2023-02-16T16:28:35.267Z,100882.31
2023-02-16T16:30:43.807Z,100873.88
2023-02-16T16:32:48.745Z,100876.78
2023-02-16T16:34:52.512Z,100882.25
2023-02-16T16:36:58.057Z,100883.94
2023-02-16T16:39:20.185Z,100877.03
2023-02-16T16:41:27.845Z,100880.72
2023-02-16T16:43:32.168Z,100877.09
2023-02-16T16:45:37.629Z,100876.59
2023-02-16T16:47:42.918Z,100872.81
2023-02-16T16:49:51.571Z,100868.97
2023-02-16T16:51:54.778Z,100870.63
2023-02-16T16:54:00.438Z,100874.06
2023-02-16T16:56:03.945Z,100868.09
2023-02-16T16:58:09.197Z,100868.09
2023-02-16T17:00:13.511Z,100867.22
2023-02-16T17:02:17.099Z,100864.63
2023-02-16T17:04:22.087Z,100849.97
2023-02-16T17:06:28.992Z,100858.78
2023-02-16T17:08:31.922Z,100858.66
2023-02-16T17:10:36.530Z,100866.34
2023-02-16T17:12:39.762Z,100869.63
2023-02-16T17:14:42.826Z,100861.41
2023-02-16T17:16:47.405Z,100862.38
2023-02-16T17:18:50.419Z,100868.72
2023-02-16T17:20:54.242Z,100866.47
2023-02-16T17:23:04.507Z,100859.59
2023-02-16T17:25:08.764Z,100862.22
2023-02-16T17:27:12.456Z,100851.38
2023-02-16T17:29:16.158Z,100845.84
2023-02-16T17:31:20.440Z,100842.00
2023-02-16T17:33:23.488Z,100846.72
2023-02-16T17:35:26.764Z,100846.66
2023-02-16T17:37:29.877Z,100845.72
2023-02-16T17:39:34.901Z,100846.91
2023-02-16T17:41:37.936Z,100842.91
2023-02-16T17:43:41.240Z,100837.03
2023-02-16T17:45:44.830Z,100836.81
2023-02-16T17:47:48.146Z,100837.75
2023-02-16T17:49:51.150Z,100835.38
2023-02-16T17:51:54.827Z,100837.16
2023-02-16T17:53:57.926Z,100845.72
2023-02-16T17:56:02.473Z,100849.34
2023-02-16T17:58:05.421Z,100842.09
2023-02-16T18:00:09.997Z,100842.16
2023-02-16T18:02:13.464Z,100851.41
2023-02-16T18:04:18.577Z,100844.53
2023-02-16T18:06:26.350Z,100840.69
2023-02-16T18:08:30.896Z,100852.78
2023-02-16T18:10:36.337Z,100856.25
2023-02-16T18:12:40.680Z,100850.97
2023-02-16T18:14:44.579Z,100849.13
2023-02-16T18:16:52.444Z,100855.47
2023-02-16T18:18:57.370Z,100857.75
2023-02-16T18:21:00.598Z,100849.72
2023-02-16T18:23:04.689Z,100849.78
2023-02-16T18:25:08.305Z,100858.06
2023-02-16T18:27:14.476Z,100866.03
2023-02-16T18:29:19.166Z,100866.88
2023-02-16T18:31:24.888Z,100867.31
2023-02-16T18:33:28.854Z,100881.88
2023-02-16T18:35:33.353Z,100872.81
2023-02-16T18:37:36.849Z,100873.34
2023-02-16T18:39:40.892Z,100863.94
2023-02-16T18:41:43.864Z,100873.88
2023-02-16T18:43:46.871Z,100863.47
2023-02-16T18:45:51.803Z,100860.72
2023-02-16T18:47:55.703Z,100866.34
2023-02-16T18:49:58.901Z,100869.16
2023-02-16T18:52:01.925Z,100863.19
2023-02-16T18:54:05.319Z,100859.59
2023-02-16T18:56:09.980Z,100852.31
2023-02-16T18:58:15.447Z,100857.84
2023-02-16T19:00:21.005Z,100855.50
2023-02-16T19:02:26.016Z,100857.25
2023-02-16T19:04:29.925Z,100854.31
2023-02-16T19:06:33.572Z,100854.31
2023-02-16T19:08:37.936Z,100848.56
2023-02-16T19:10:41.101Z,100858.78
2023-02-16T19:12:44.166Z,100848.16
2023-02-16T19:14:47.346Z,100853.22
2023-02-16T19:16:50.901Z,100850.69
2023-02-16T19:18:55.452Z,100853.84
2023-02-16T19:20:58.488Z,100847.97
2023-02-16T19:23:01.937Z,100849.88
2023-02-16T19:25:05.123Z,100866.75
2023-02-16T19:27:08.210Z,100849.84
2023-02-16T19:29:12.851Z,100866.78
2023-02-16T19:31:19.128Z,100870.69
2023-02-16T19:33:22.364Z,100860.34
2023-02-16T19:35:29.197Z,100877.06
2023-02-16T19:37:32.236Z,100881.81
2023-02-16T19:39:38.954Z,100867.53
2023-02-16T19:41:47.267Z,100877.53
2023-02-16T19:43:54.110Z,100872.59
2023-02-16T19:46:00.491Z,100881.63
2023-02-16T19:48:08.031Z,100889.28
2023-02-16T19:50:13.570Z,100887.59
2023-02-16T19:54:39.287Z,100885.69
2023-02-16T19:56:44.068Z,100889.94
2023-02-16T19:58:48.119Z,100890.75
2023-02-16T20:00:51.784Z,100890.75
2023-02-16T20:02:56.651Z,100892.50
2023-02-16T20:05:00.379Z,100894.25
2023-02-16T20:07:05.630Z,100900.63
2023-02-16T20:09:12.264Z,100902.81
2023-02-16T20:11:17.386Z,100897.25
2023-02-16T20:13:20.555Z,100897.41
2023-02-16T20:15:24.565Z,100892.19
2023-02-16T20:17:28.656Z,100887.38
2023-02-16T20:19:32.693Z,100896.63
2023-02-16T20:21:35.963Z,100887.53
2023-02-16T20:23:40.544Z,100876.25
2023-02-16T20:25:45.066Z,100886.38
2023-02-16T20:27:49.760Z,100883.75
2023-02-16T20:29:53.671Z,100892.28
2023-02-16T20:32:00.113Z,100893.31
2023-02-16T20:34:05.147Z,100900.56
2023-02-16T20:36:11.637Z,100897.94
2023-02-16T20:38:18.626Z,100887.63
2023-02-16T20:40:36.778Z,100899.00
2023-02-16T20:42:39.667Z,100887.00
2023-02-16T20:44:42.551Z,100888.75
2023-02-16T20:46:45.416Z,100890.31
2023-02-16T20:48:50.033Z,100881.72
2023-02-16T20:50:55.130Z,100901.97
2023-02-16T20:52:58.028Z,100868.59
2023-02-16T20:55:01.325Z,100886.41
2023-02-16T20:57:07.068Z,100888.69
2023-02-16T20:59:12.423Z,100896.78
2023-02-16T21:01:16.723Z,100885.78
2023-02-16T21:03:19.552Z,100883.75
2023-02-16T21:05:23.970Z,100898.47
2023-02-16T21:07:26.831Z,100894.25
2023-02-16T21:09:29.662Z,100895.41
2023-02-16T21:11:32.597Z,100886.75
2023-02-16T21:13:38.187Z,100889.91
2023-02-16T21:15:41.065Z,100888.91
2023-02-16T21:17:43.943Z,100886.81
2023-02-16T21:19:47.082Z,100879.09
2023-02-16T21:21:49.937Z,100883.34
2023-02-16T21:23:54.442Z,100889.53
2023-02-16T21:25:58.981Z,100880.84
2023-02-16T21:28:01.978Z,100883.38
2023-02-16T21:30:07.907Z,100898.38
2023-02-16T21:32:10.938Z,100897.59
2023-02-16T21:34:13.831Z,100885.41
2023-02-16T21:36:19.113Z,100898.59
2023-02-16T21:38:21.961Z,100895.00
2023-02-16T21:40:42.282Z,100893.97
2023-02-16T21:42:45.135Z,100893.00
2023-02-16T21:45:08.085Z,100888.59
2023-02-16T21:47:31.156Z,100892.94
2023-02-16T21:49:33.989Z,100882.28
2023-02-16T21:51:38.992Z,100895.31
2023-02-16T21:53:41.834Z,100875.44
2023-02-16T21:56:02.019Z,100871.00
2023-02-16T21:58:07.831Z,100880.88
2023-02-16T22:00:15.882Z,100870.34
2023-02-16T22:02:20.145Z,100873.00
2023-02-16T22:04:23.833Z,100858.16
2023-02-16T22:06:28.031Z,100854.56
2023-02-16T22:08:32.154Z,100846.06
2023-02-16T22:10:36.688Z,100859.13
2023-02-16T22:12:39.500Z,100847.97
2023-02-16T22:14:42.510Z,100845.69
2023-02-16T22:16:46.595Z,100856.31
2023-02-16T22:18:51.079Z,100861.59
2023-02-16T22:20:53.994Z,100850.09
2023-02-16T22:22:56.827Z,100852.81
2023-02-16T22:24:59.722Z,100849.22
2023-02-16T22:27:02.572Z,100855.28
2023-02-16T22:29:06.997Z,100865.63
2023-02-16T22:31:10.262Z,100853.47
2023-02-16T22:33:13.163Z,100850.41
2023-02-16T22:35:17.549Z,100862.03
2023-02-16T22:37:20.430Z,100859.19
2023-02-16T22:39:23.263Z,100849.47
2023-02-16T22:41:26.677Z,100845.03
2023-02-16T22:43:29.619Z,100844.06
2023-02-16T22:45:32.447Z,100840.13
2023-02-16T22:47:35.312Z,100838.22
2023-02-16T22:49:38.202Z,100840.50
2023-02-16T22:51:42.425Z,100842.31
2023-02-16T22:53:45.389Z,100845.22
2023-02-16T22:55:48.226Z,100832.00
2023-02-16T22:57:52.151Z,100831.91
2023-02-16T22:59:55.000Z,100826.59
2023-02-16T23:01:57.987Z,100840.84
2023-02-16T23:04:01.975Z,100836.31
2023-02-16T23:06:12.843Z,100839.19
2023-02-16T23:08:17.275Z,100831.13
2023-02-16T23:10:20.103Z,100841.63
2023-02-16T23:12:22.952Z,100839.91
2023-02-16T23:14:26.640Z,100843.88
2023-02-16T23:16:30.744Z,100845.56
2023-02-16T23:18:33.865Z,100841.44
2023-02-16T23:20:36.681Z,100844.66
2023-02-16T23:22:39.814Z,100844.91
2023-02-16T23:24:43.967Z,100846.44
2023-02-16T23:26:47.059Z,100843.09
2023-02-16T23:28:51.905Z,100843.75
2023-02-16T23:30:57.840Z,100836.56
2023-02-16T23:33:00.744Z,100840.72
2023-02-16T23:35:03.591Z,100842.72
2023-02-16T23:37:06.367Z,100835.47
2023-02-16T23:39:11.950Z,100835.22
2023-02-16T23:41:16.611Z,100841.69
2023-02-16T23:43:19.401Z,100847.69
2023-02-16T23:45:22.183Z,100837.91
2023-02-16T23:47:25.042Z,100837.28
2023-02-16T23:49:27.926Z,100840.59
2023-02-16T23:51:30.792Z,100835.31
2023-02-16T23:53:33.816Z,100839.72
2023-02-16T23:55:36.745Z,100829.91
2023-02-16T23:57:40.893Z,100829.63
2023-02-16T23:59:44.259Z,100827.09
